createdAt,value
2023-04-29T00:00:37.836Z,1006.11
2023-04-29T00:01:37.804Z,1006.08
2023-04-29T00:02:37.911Z,1006.13
2023-04-29T00:03:37.943Z,1006.09
2023-04-29T00:04:37.970Z,1006.13
2023-04-29T00:05:37.883Z,1006.13
2023-04-29T00:06:37.763Z,1006.14
2023-04-29T00:07:37.729Z,1006.12
2023-04-29T00:08:37.710Z,1006.15
2023-04-29T00:09:37.693Z,1006.06
2023-04-29T00:10:37.696Z,1006.09
2023-04-29T00:11:37.718Z,1006.08
2023-04-29T00:12:37.664Z,1006.10
2023-04-29T00:13:37.660Z,1006.09
2023-04-29T00:14:37.644Z,1006.12
2023-04-29T00:15:37.680Z,1006.09
2023-04-29T00:16:37.794Z,1006.16
2023-04-29T00:17:37.692Z,1006.17
2023-04-29T00:18:37.599Z,1006.17
2023-04-29T00:19:37.581Z,1006.09
2023-04-29T00:20:37.604Z,1006.11
2023-04-29T00:21:37.565Z,1006.15
2023-04-29T00:22:37.560Z,1006.12
2023-04-29T00:23:37.567Z,1006.06
2023-04-29T00:24:37.540Z,1006.16
2023-04-29T00:25:37.528Z,1006.16
2023-04-29T00:26:37.522Z,1006.19
2023-04-29T00:27:37.496Z,1006.16
2023-04-29T00:28:37.499Z,1006.18
2023-04-29T00:29:37.479Z,1006.21
2023-04-29T00:30:37.467Z,1006.12
2023-04-29T00:31:37.769Z,1006.26
2023-04-29T00:32:37.481Z,1006.24
2023-04-29T00:33:37.432Z,1006.18
2023-04-29T00:34:37.418Z,1006.24
2023-04-29T00:35:37.421Z,1006.27
2023-04-29T00:36:37.401Z,1006.26
2023-04-29T00:37:37.421Z,1006.30
2023-04-29T00:38:37.395Z,1006.26
2023-04-29T00:39:37.361Z,1006.24
2023-04-29T00:40:37.352Z,1006.30
2023-04-29T00:41:37.336Z,1006.27
2023-04-29T00:42:37.341Z,1006.28
2023-04-29T00:43:37.313Z,1006.30
2023-04-29T00:44:37.322Z,1006.34
2023-04-29T00:45:37.298Z,1006.36
2023-04-29T00:46:37.336Z,1006.37
2023-04-29T00:47:37.370Z,1006.41
2023-04-29T00:48:37.278Z,1006.38
2023-04-29T00:49:37.273Z,1006.34
2023-04-29T00:50:37.243Z,1006.40
2023-04-29T00:51:37.229Z,1006.41
2023-04-29T00:52:37.224Z,1006.41
2023-04-29T00:53:37.232Z,1006.43
2023-04-29T00:54:37.221Z,1006.46
2023-04-29T00:55:37.182Z,1006.43
2023-04-29T00:56:37.178Z,1006.46
2023-04-29T00:57:37.166Z,1006.46
2023-04-29T00:58:37.158Z,1006.50
2023-04-29T00:59:37.167Z,1006.52
2023-04-29T01:00:37.125Z,1006.48
2023-04-29T01:01:37.198Z,1006.50
2023-04-29T01:02:37.233Z,1006.53
2023-04-29T01:03:37.407Z,1006.51
2023-04-29T01:04:37.127Z,1006.60
2023-04-29T01:05:37.066Z,1006.59
2023-04-29T01:06:37.066Z,1006.56
2023-04-29T01:07:37.056Z,1006.59
2023-04-29T01:08:37.043Z,1006.64
2023-04-29T01:09:37.037Z,1006.58
2023-04-29T01:10:37.024Z,1006.65
2023-04-29T01:11:37.000Z,1006.60
2023-04-29T01:12:37.019Z,1006.62
2023-04-29T01:13:36.978Z,1006.73
2023-04-29T01:14:36.990Z,1006.67
2023-04-29T01:15:36.996Z,1006.73
2023-04-29T01:16:37.111Z,1006.78
2023-04-29T01:17:36.960Z,1006.78
2023-04-29T01:18:36.979Z,1006.75
2023-04-29T01:19:36.937Z,1006.76
2023-04-29T01:20:36.928Z,1006.81
2023-04-29T01:21:36.901Z,1006.82
2023-04-29T01:22:36.887Z,1006.85
2023-04-29T01:23:36.871Z,1006.80
2023-04-29T01:24:36.865Z,1006.85
2023-04-29T01:25:36.882Z,1006.86
2023-04-29T01:26:36.851Z,1006.88
2023-04-29T01:27:36.834Z,1006.86
2023-04-29T01:28:36.822Z,1006.90
2023-04-29T01:29:36.818Z,1006.86
2023-04-29T01:30:36.800Z,1006.88
2023-04-29T01:31:36.873Z,1006.84
2023-04-29T01:32:36.818Z,1006.90
2023-04-29T01:33:36.774Z,1006.94
2023-04-29T01:34:36.759Z,1006.88
2023-04-29T01:35:36.762Z,1006.87
2023-04-29T01:36:36.756Z,1006.89
2023-04-29T01:37:36.715Z,1006.89
2023-04-29T01:38:36.707Z,1006.92
2023-04-29T01:39:36.688Z,1006.94
2023-04-29T01:40:36.694Z,1006.99
2023-04-29T01:41:36.662Z,1006.91
2023-04-29T01:42:36.685Z,1006.93
2023-04-29T01:43:36.651Z,1006.93
2023-04-29T01:44:36.647Z,1006.94
2023-04-29T01:45:36.632Z,1006.96
2023-04-29T01:46:36.700Z,1006.93
2023-04-29T01:47:36.618Z,1006.95
2023-04-29T01:48:36.605Z,1006.95
2023-04-29T01:49:36.584Z,1006.99
2023-04-29T01:50:36.568Z,1006.99
2023-04-29T01:51:36.576Z,1006.99
2023-04-29T01:52:36.546Z,1007.01
2023-04-29T01:53:36.547Z,1007.03
2023-04-29T01:54:36.523Z,1007.03
2023-04-29T01:55:36.529Z,1007.07
2023-04-29T01:56:36.510Z,1007.07
2023-04-29T01:57:36.491Z,1007.06
2023-04-29T01:58:36.487Z,1007.09
2023-04-29T01:59:36.483Z,1007.13
2023-04-29T02:00:36.511Z,1007.10
2023-04-29T02:01:36.446Z,1007.10
2023-04-29T02:02:36.511Z,1007.10
2023-04-29T02:03:36.620Z,1007.08
2023-04-29T02:04:36.529Z,1007.12
2023-04-29T02:05:36.410Z,1007.15
2023-04-29T02:06:36.394Z,1007.13
2023-04-29T02:07:36.395Z,1007.17
2023-04-29T02:08:36.390Z,1007.13
2023-04-29T02:09:36.361Z,1007.08
2023-04-29T02:10:36.346Z,1007.13
2023-04-29T02:11:36.341Z,1007.19
2023-04-29T02:12:36.326Z,1007.20
2023-04-29T02:13:36.311Z,1007.24
2023-04-29T02:14:37.920Z,1007.23
2023-04-29T02:15:36.293Z,1007.20
2023-04-29T02:16:36.327Z,1007.24
2023-04-29T02:17:36.320Z,1007.25
2023-04-29T02:18:36.262Z,1007.28
2023-04-29T02:19:36.256Z,1007.30
2023-04-29T02:20:36.264Z,1007.31
2023-04-29T02:21:36.225Z,1007.35
2023-04-29T02:22:36.220Z,1007.37
2023-04-29T02:23:36.225Z,1007.39
2023-04-29T02:24:36.199Z,1007.37
2023-04-29T02:25:36.225Z,1007.35
2023-04-29T02:26:36.169Z,1007.35
2023-04-29T02:27:36.157Z,1007.40
2023-04-29T02:28:36.154Z,1007.38
2023-04-29T02:29:36.146Z,1007.47
2023-04-29T02:30:36.136Z,1007.46
2023-04-29T02:31:36.132Z,1007.39
2023-04-29T02:32:36.212Z,1007.49
2023-04-29T02:33:36.088Z,1007.42
2023-04-29T02:34:36.100Z,1007.45
2023-04-29T02:35:36.077Z,1007.46
2023-04-29T02:36:36.056Z,1007.47
2023-04-29T02:37:36.043Z,1007.52
2023-04-29T02:38:36.040Z,1007.55
2023-04-29T02:39:36.047Z,1007.54
2023-04-29T02:40:36.028Z,1007.44
2023-04-29T02:41:36.013Z,1007.50
2023-04-29T02:42:36.012Z,1007.53
2023-04-29T02:43:35.981Z,1007.53
2023-04-29T02:44:35.966Z,1007.51
2023-04-29T02:45:36.020Z,1007.51
2023-04-29T02:46:35.954Z,1007.57
2023-04-29T02:47:35.984Z,1007.53
2023-04-29T02:48:35.925Z,1007.52
2023-04-29T02:49:35.918Z,1007.52
2023-04-29T02:50:35.911Z,1007.56
2023-04-29T02:51:35.914Z,1007.64
2023-04-29T02:52:35.884Z,1007.56
2023-04-29T02:53:35.868Z,1007.53
2023-04-29T02:54:35.862Z,1007.56
2023-04-29T02:55:35.968Z,1007.56
2023-04-29T02:56:35.872Z,1007.56
2023-04-29T02:57:35.827Z,1007.62
2023-04-29T02:58:35.817Z,1007.60
2023-04-29T02:59:35.812Z,1007.66
2023-04-29T03:00:35.804Z,1007.61
2023-04-29T03:01:35.847Z,1007.68
2023-04-29T03:02:35.992Z,1007.69
2023-04-29T03:03:35.990Z,1007.67
2023-04-29T03:04:35.748Z,1007.64
2023-04-29T03:05:35.749Z,1007.68
2023-04-29T03:06:35.735Z,1007.75
2023-04-29T03:07:35.736Z,1007.75
2023-04-29T03:08:35.700Z,1007.74
2023-04-29T03:09:35.722Z,1007.66
2023-04-29T03:10:35.675Z,1007.65
2023-04-29T03:11:35.689Z,1007.75
2023-04-29T03:12:35.672Z,1007.73
2023-04-29T03:13:35.655Z,1007.76
2023-04-29T03:14:35.654Z,1007.74
2023-04-29T03:15:35.627Z,1007.74
2023-04-29T03:16:35.659Z,1007.75
2023-04-29T03:17:35.623Z,1007.78
2023-04-29T03:18:35.604Z,1007.83
2023-04-29T03:19:35.590Z,1007.78
2023-04-29T03:20:35.573Z,1007.83
2023-04-29T03:21:35.564Z,1007.81
2023-04-29T03:22:35.584Z,1007.86
2023-04-29T03:23:35.549Z,1007.90
2023-04-29T03:24:35.528Z,1007.95
2023-04-29T03:25:35.561Z,1007.94
2023-04-29T03:26:35.506Z,1007.92
2023-04-29T03:27:35.506Z,1007.99
2023-04-29T03:28:35.498Z,1007.95
2023-04-29T03:29:35.466Z,1007.99
2023-04-29T03:30:35.473Z,1008.01
2023-04-29T03:31:35.579Z,1007.97
2023-04-29T03:32:35.482Z,1008.03
2023-04-29T03:33:35.441Z,1007.97
2023-04-29T03:34:35.409Z,1008.03
2023-04-29T03:35:35.404Z,1008.02
2023-04-29T03:36:35.375Z,1008.00
2023-04-29T03:37:35.369Z,1008.01
2023-04-29T03:38:35.379Z,1008.00
2023-04-29T03:39:35.352Z,1007.98
2023-04-29T03:40:35.334Z,1007.99
2023-04-29T03:41:35.336Z,1008.05
2023-04-29T03:42:35.315Z,1008.04
2023-04-29T03:43:35.600Z,1008.00
2023-04-29T03:44:35.306Z,1008.10
2023-04-29T03:45:35.303Z,1008.06
2023-04-29T03:46:35.356Z,1008.04
2023-04-29T03:47:35.285Z,1008.02
2023-04-29T03:48:35.244Z,1008.05
2023-04-29T03:49:35.254Z,1008.05
2023-04-29T03:50:35.229Z,1008.09
2023-04-29T03:51:35.208Z,1008.07
2023-04-29T03:52:35.201Z,1008.19
2023-04-29T03:53:35.190Z,1008.07
2023-04-29T03:54:35.207Z,1008.06
2023-04-29T03:55:35.170Z,1008.16
2023-04-29T03:56:35.153Z,1008.17
2023-04-29T03:57:35.147Z,1008.20
2023-04-29T03:58:35.144Z,1008.17
2023-04-29T03:59:35.335Z,1008.21
2023-04-29T04:00:35.130Z,1008.22
2023-04-29T04:01:35.146Z,1008.24
2023-04-29T04:02:35.241Z,1008.24
2023-04-29T04:03:35.212Z,1008.29
2023-04-29T04:04:35.236Z,1008.28
2023-04-29T04:05:35.067Z,1008.24
2023-04-29T04:06:35.044Z,1008.28
2023-04-29T04:07:35.046Z,1008.27
2023-04-29T04:08:35.034Z,1008.36
2023-04-29T04:09:35.029Z,1008.28
2023-04-29T04:10:35.007Z,1008.33
2023-04-29T04:11:34.990Z,1008.33
2023-04-29T04:12:34.979Z,1008.31
2023-04-29T04:13:34.970Z,1008.35
2023-04-29T04:14:34.998Z,1008.40
2023-04-29T04:15:34.970Z,1008.38
2023-04-29T04:16:34.973Z,1008.37
2023-04-29T04:17:34.961Z,1008.41
2023-04-29T04:18:34.921Z,1008.38
2023-04-29T04:19:34.912Z,1008.42
2023-04-29T04:20:34.911Z,1008.36
2023-04-29T04:21:34.888Z,1008.42
2023-04-29T04:22:34.862Z,1008.44
2023-04-29T04:23:34.853Z,1008.48
2023-04-29T04:24:34.848Z,1008.43
2023-04-29T04:25:34.832Z,1008.50
2023-04-29T04:26:34.842Z,1008.50
2023-04-29T04:27:34.811Z,1008.52
2023-04-29T04:28:34.810Z,1008.50
2023-04-29T04:29:34.794Z,1008.54
2023-04-29T04:30:34.781Z,1008.56
2023-04-29T04:31:34.865Z,1008.55
2023-04-29T04:32:34.852Z,1008.63
2023-04-29T04:33:34.744Z,1008.57
2023-04-29T04:34:34.744Z,1008.52
2023-04-29T04:35:34.730Z,1008.54
2023-04-29T04:36:34.722Z,1008.60
2023-04-29T04:37:34.722Z,1008.67
2023-04-29T04:38:34.695Z,1008.63
2023-04-29T04:39:34.691Z,1008.65
2023-04-29T04:40:34.670Z,1008.72
2023-04-29T04:41:34.681Z,1008.68
2023-04-29T04:42:34.672Z,1008.71
2023-04-29T04:43:34.651Z,1008.68
2023-04-29T04:44:34.625Z,1008.71
2023-04-29T04:45:34.628Z,1008.72
2023-04-29T04:46:34.608Z,1008.78
2023-04-29T04:47:34.653Z,1008.79
2023-04-29T04:48:34.592Z,1008.75
2023-04-29T04:49:34.569Z,1008.79
2023-04-29T04:50:34.567Z,1008.77
2023-04-29T04:51:34.552Z,1008.85
2023-04-29T04:52:34.566Z,1008.83
2023-04-29T04:53:34.527Z,1008.78
2023-04-29T04:54:34.550Z,1008.84
2023-04-29T04:55:34.505Z,1008.80
2023-04-29T04:56:34.492Z,1008.82
2023-04-29T04:57:34.481Z,1008.81
2023-04-29T04:58:34.468Z,1008.82
2023-04-29T04:59:34.492Z,1008.85
2023-04-29T05:00:34.450Z,1008.88
2023-04-29T05:01:34.487Z,1008.84
2023-04-29T05:02:34.585Z,1008.92
2023-04-29T05:03:34.537Z,1008.90
2023-04-29T05:04:34.519Z,1008.88
2023-04-29T05:05:34.402Z,1008.87
2023-04-29T05:06:34.377Z,1008.86
2023-04-29T05:07:34.375Z,1008.92
2023-04-29T05:08:34.391Z,1008.93
2023-04-29T05:09:34.378Z,1008.92
2023-04-29T05:10:34.344Z,1008.97
2023-04-29T05:11:34.335Z,1008.95
2023-04-29T05:12:34.337Z,1008.96
2023-04-29T05:13:34.306Z,1009.00
2023-04-29T05:14:34.321Z,1008.92
2023-04-29T05:15:34.286Z,1009.04
2023-04-29T05:16:34.306Z,1009.01
2023-04-29T05:17:34.327Z,1009.02
2023-04-29T05:18:34.248Z,1009.05
2023-04-29T05:19:34.277Z,1009.09
2023-04-29T05:20:34.282Z,1009.11
2023-04-29T05:21:34.217Z,1009.23
2023-04-29T05:22:34.214Z,1009.25
2023-04-29T05:23:34.204Z,1009.21
2023-04-29T05:24:34.193Z,1009.34
2023-04-29T05:25:34.182Z,1009.21
2023-04-29T05:26:34.180Z,1009.34
2023-04-29T05:27:34.156Z,1009.33
2023-04-29T05:28:34.133Z,1009.36
2023-04-29T05:29:34.130Z,1009.36
2023-04-29T05:30:34.187Z,1009.33
2023-04-29T05:31:34.109Z,1009.38
2023-04-29T05:32:34.143Z,1009.35
2023-04-29T05:33:34.094Z,1009.38
2023-04-29T05:34:34.068Z,1009.32
2023-04-29T05:35:34.098Z,1009.40
2023-04-29T05:36:34.065Z,1009.43
2023-04-29T05:37:34.048Z,1009.41
2023-04-29T05:38:34.030Z,1009.37
2023-04-29T05:39:34.020Z,1009.40
2023-04-29T05:40:34.009Z,1009.44
2023-04-29T05:41:33.997Z,1009.41
2023-04-29T05:42:34.011Z,1009.45
2023-04-29T05:43:33.973Z,1009.44
2023-04-29T05:44:33.959Z,1009.49
2023-04-29T05:45:33.986Z,1009.53
2023-04-29T05:46:33.992Z,1009.54
2023-04-29T05:47:33.996Z,1009.47
2023-04-29T05:48:33.913Z,1009.47
2023-04-29T05:49:33.912Z,1009.55
2023-04-29T05:50:33.890Z,1009.55
2023-04-29T05:51:34.018Z,1009.60
2023-04-29T05:52:33.870Z,1009.66
2023-04-29T05:53:33.885Z,1009.61
2023-04-29T05:54:33.873Z,1009.64
2023-04-29T05:55:33.859Z,1009.72
2023-04-29T05:56:33.825Z,1009.70
2023-04-29T05:57:33.824Z,1009.74
2023-04-29T05:58:33.831Z,1009.73
2023-04-29T05:59:33.794Z,1009.80
2023-04-29T06:00:33.777Z,1009.78
2023-04-29T06:01:33.776Z,1009.80
2023-04-29T06:02:37.488Z,1009.76
2023-04-29T06:03:34.966Z,1009.82
2023-04-29T06:04:33.949Z,1009.87
2023-04-29T06:05:34.071Z,1009.93
2023-04-29T06:06:33.874Z,1009.88
2023-04-29T06:07:33.727Z,1009.93
2023-04-29T06:08:33.699Z,1009.94
2023-04-29T06:09:33.719Z,1009.96
2023-04-29T06:10:33.680Z,1009.94
2023-04-29T06:11:33.662Z,1009.98
2023-04-29T06:12:33.645Z,1010.01
2023-04-29T06:13:33.641Z,1010.08
2023-04-29T06:14:33.625Z,1010.10
2023-04-29T06:15:33.674Z,1010.03
2023-04-29T06:16:33.642Z,1010.01
2023-04-29T06:17:33.642Z,1010.02
2023-04-29T06:18:33.590Z,1010.03
2023-04-29T06:19:33.583Z,1009.97
2023-04-29T06:20:34.892Z,1010.07
2023-04-29T06:21:33.556Z,1010.06
2023-04-29T06:22:33.537Z,1010.08
2023-04-29T06:23:33.551Z,1010.07
2023-04-29T06:24:33.515Z,1010.11
2023-04-29T06:25:33.511Z,1010.07
2023-04-29T06:26:33.499Z,1010.08
2023-04-29T06:27:33.488Z,1010.17
2023-04-29T06:28:33.497Z,1010.13
2023-04-29T06:29:33.459Z,1010.14
2023-04-29T06:30:33.445Z,1010.15
2023-04-29T06:31:33.501Z,1010.13
2023-04-29T06:32:33.452Z,1010.19
2023-04-29T06:33:33.417Z,1010.22
2023-04-29T06:34:33.408Z,1010.19
2023-04-29T06:35:33.397Z,1010.22
2023-04-29T06:36:33.387Z,1010.29
2023-04-29T06:37:34.405Z,1010.22
2023-04-29T06:38:33.357Z,1010.27
2023-04-29T06:39:33.375Z,1010.29
2023-04-29T06:40:33.356Z,1010.33
2023-04-29T06:41:33.343Z,1010.31
2023-04-29T06:42:33.336Z,1010.36
2023-04-29T06:43:33.324Z,1010.32
2023-04-29T06:44:33.344Z,1010.29
2023-04-29T06:45:33.282Z,1010.33
2023-04-29T06:46:33.350Z,1010.38
2023-04-29T06:47:33.307Z,1010.37
2023-04-29T06:48:33.253Z,1010.42
2023-04-29T06:49:33.241Z,1010.39
2023-04-29T06:50:33.227Z,1010.40
2023-04-29T06:51:33.218Z,1010.43
2023-04-29T06:52:33.227Z,1010.45
2023-04-29T06:53:33.196Z,1010.55
2023-04-29T06:54:33.197Z,1010.49
2023-04-29T06:55:33.187Z,1010.48
2023-04-29T06:56:33.181Z,1010.50
2023-04-29T06:57:33.166Z,1010.52
2023-04-29T06:58:33.144Z,1010.55
2023-04-29T06:59:33.136Z,1010.59
2023-04-29T07:00:33.117Z,1010.60
2023-04-29T07:01:33.167Z,1010.62
2023-04-29T07:02:33.177Z,1010.61
2023-04-29T07:03:33.137Z,1010.60
2023-04-29T07:04:33.115Z,1010.68
2023-04-29T07:05:33.069Z,1010.69
2023-04-29T07:06:33.053Z,1010.77
2023-04-29T07:07:33.090Z,1010.77
2023-04-29T07:08:33.037Z,1010.71
2023-04-29T07:09:33.013Z,1010.80
2023-04-29T07:10:33.015Z,1010.78
2023-04-29T07:11:33.013Z,1010.87
2023-04-29T07:12:32.981Z,1010.80
2023-04-29T07:13:32.978Z,1010.83
2023-04-29T07:14:32.967Z,1010.84
2023-04-29T07:15:32.950Z,1010.82
2023-04-29T07:16:33.016Z,1010.86
2023-04-29T07:17:32.987Z,1010.85
2023-04-29T07:18:32.927Z,1010.85
2023-04-29T07:19:32.923Z,1010.93
2023-04-29T07:20:32.913Z,1010.92
2023-04-29T07:21:32.881Z,1010.97
2023-04-29T07:22:32.890Z,1010.99
2023-04-29T07:23:32.854Z,1010.96
2023-04-29T07:24:32.854Z,1010.95
2023-04-29T07:25:32.842Z,1011.02
2023-04-29T07:26:32.826Z,1011.03
2023-04-29T07:27:32.840Z,1011.06
2023-04-29T07:28:32.828Z,1011.13
2023-04-29T07:29:32.796Z,1011.13
2023-04-29T07:30:32.797Z,1011.12
2023-04-29T07:31:32.823Z,1011.19
2023-04-29T07:32:32.852Z,1011.18
2023-04-29T07:33:32.745Z,1011.18
2023-04-29T07:34:32.772Z,1011.24
2023-04-29T07:35:32.721Z,1011.20
2023-04-29T07:36:32.727Z,1011.17
2023-04-29T07:37:32.699Z,1011.17
2023-04-29T07:38:32.690Z,1011.22
2023-04-29T07:39:32.705Z,1011.22
2023-04-29T07:40:32.702Z,1011.18
2023-04-29T07:41:32.651Z,1011.24
2023-04-29T07:42:32.642Z,1011.23
2023-04-29T07:43:32.659Z,1011.24
2023-04-29T07:44:32.659Z,1011.25
2023-04-29T07:45:32.637Z,1011.26
2023-04-29T07:46:32.620Z,1011.28
2023-04-29T07:47:32.623Z,1011.35
2023-04-29T07:48:32.575Z,1011.37
2023-04-29T07:49:32.584Z,1011.34
2023-04-29T07:50:32.560Z,1011.37
2023-04-29T07:51:32.542Z,1011.35
2023-04-29T07:52:32.539Z,1011.37
2023-04-29T07:53:32.520Z,1011.39
2023-04-29T07:54:32.545Z,1011.42
2023-04-29T07:55:32.506Z,1011.44
2023-04-29T07:56:32.490Z,1011.48
2023-04-29T07:57:32.477Z,1011.45
2023-04-29T07:58:32.463Z,1011.50
2023-04-29T07:59:32.472Z,1011.47
2023-04-29T08:00:32.457Z,1011.47
2023-04-29T08:01:32.433Z,1011.52
2023-04-29T08:02:32.551Z,1011.56
2023-04-29T08:03:32.499Z,1011.61
2023-04-29T08:04:32.666Z,1011.57
2023-04-29T08:05:32.729Z,1011.66
2023-04-29T08:06:32.391Z,1011.66
2023-04-29T08:07:32.356Z,1011.64
2023-04-29T08:08:32.353Z,1011.68
2023-04-29T08:09:32.338Z,1011.71
2023-04-29T08:10:32.332Z,1011.74
2023-04-29T08:11:32.340Z,1011.60
2023-04-29T08:12:32.318Z,1011.70
2023-04-29T08:13:32.302Z,1011.69
2023-04-29T08:14:32.287Z,1011.73
2023-04-29T08:15:32.292Z,1011.78
2023-04-29T08:16:32.321Z,1011.72
2023-04-29T08:17:32.303Z,1011.77
2023-04-29T08:18:32.423Z,1011.78
2023-04-29T08:19:32.235Z,1011.83
2023-04-29T08:20:32.253Z,1011.76
2023-04-29T08:21:32.231Z,1011.81
2023-04-29T08:22:32.213Z,1011.82
2023-04-29T08:23:32.187Z,1011.90
2023-04-29T08:24:32.192Z,1011.85
2023-04-29T08:25:32.170Z,1011.84
2023-04-29T08:26:32.170Z,1011.89
2023-04-29T08:27:32.141Z,1011.90
2023-04-29T08:28:32.143Z,1011.87
2023-04-29T08:29:32.127Z,1011.89
2023-04-29T08:30:32.128Z,1011.90
2023-04-29T08:31:32.164Z,1011.90
2023-04-29T08:32:32.217Z,1011.88
2023-04-29T08:33:32.065Z,1011.86
2023-04-29T08:34:32.063Z,1011.90
2023-04-29T08:35:32.076Z,1011.93
2023-04-29T08:36:32.049Z,1011.93
2023-04-29T08:37:32.021Z,1011.90
2023-04-29T08:38:32.051Z,1011.96
2023-04-29T08:39:31.999Z,1011.95
2023-04-29T08:40:32.002Z,1011.89
2023-04-29T08:41:32.004Z,1011.98
2023-04-29T08:42:31.987Z,1011.90
2023-04-29T08:43:31.967Z,1011.96
2023-04-29T08:44:31.958Z,1011.98
2023-04-29T08:45:31.954Z,1011.99
2023-04-29T08:46:31.947Z,1011.99
2023-04-29T08:47:32.034Z,1011.98
2023-04-29T08:48:32.016Z,1012.00
2023-04-29T08:49:31.894Z,1012.02
2023-04-29T08:50:31.893Z,1012.04
2023-04-29T08:51:31.884Z,1012.06
2023-04-29T08:52:31.858Z,1012.04
2023-04-29T08:53:31.856Z,1012.09
2023-04-29T08:54:31.855Z,1012.06
2023-04-29T08:55:31.823Z,1012.09
2023-04-29T08:56:31.819Z,1012.05
2023-04-29T08:57:31.833Z,1011.99
2023-04-29T08:58:31.797Z,1012.08
2023-04-29T08:59:31.795Z,1012.10
2023-04-29T09:00:31.771Z,1012.07
2023-04-29T09:01:31.792Z,1012.09
2023-04-29T09:02:31.868Z,1012.19
2023-04-29T09:03:31.911Z,1012.20
2023-04-29T09:04:31.812Z,1012.19
2023-04-29T09:05:31.725Z,1012.18
2023-04-29T09:06:31.707Z,1012.21
2023-04-29T09:07:31.721Z,1012.17
2023-04-29T09:08:31.696Z,1012.26
2023-04-29T09:09:31.674Z,1012.26
2023-04-29T09:10:31.665Z,1012.22
2023-04-29T09:11:31.642Z,1012.15
2023-04-29T09:12:31.637Z,1012.18
2023-04-29T09:13:31.623Z,1012.17
2023-04-29T09:14:31.632Z,1012.21
2023-04-29T09:15:31.603Z,1012.20
2023-04-29T09:16:31.653Z,1012.29
2023-04-29T09:17:31.600Z,1012.22
2023-04-29T09:18:31.573Z,1012.32
2023-04-29T09:19:31.589Z,1012.25
2023-04-29T09:20:31.570Z,1012.28
2023-04-29T09:21:31.535Z,1012.31
2023-04-29T09:22:31.530Z,1012.30
2023-04-29T09:23:31.524Z,1012.33
2023-04-29T09:24:31.537Z,1012.33
2023-04-29T09:25:31.534Z,1012.29
2023-04-29T09:26:31.489Z,1012.38
2023-04-29T09:27:31.466Z,1012.39
2023-04-29T09:28:31.467Z,1012.37
2023-04-29T09:29:31.479Z,1012.39
2023-04-29T09:30:31.473Z,1012.40
2023-04-29T09:31:31.473Z,1012.46
2023-04-29T09:32:31.454Z,1012.50
2023-04-29T09:33:31.426Z,1012.46
2023-04-29T09:34:31.408Z,1012.48
2023-04-29T09:35:31.398Z,1012.52
2023-04-29T09:36:31.388Z,1012.48
2023-04-29T09:37:31.364Z,1012.52
2023-04-29T09:38:31.352Z,1012.56
2023-04-29T09:39:31.348Z,1012.53
2023-04-29T09:40:31.326Z,1012.55
2023-04-29T09:41:31.342Z,1012.59
2023-04-29T09:42:31.308Z,1012.58
2023-04-29T09:43:31.291Z,1012.61
2023-04-29T09:44:33.845Z,1012.54
2023-04-29T09:45:31.268Z,1012.54
2023-04-29T09:46:31.435Z,1012.61
2023-04-29T09:47:31.294Z,1012.61
2023-04-29T09:48:31.242Z,1012.60
2023-04-29T09:49:31.241Z,1012.65
2023-04-29T09:50:31.216Z,1012.63
2023-04-29T09:51:31.227Z,1012.66
2023-04-29T09:52:31.209Z,1012.59
2023-04-29T09:53:31.205Z,1012.63
2023-04-29T09:54:31.208Z,1012.71
2023-04-29T09:55:31.157Z,1012.65
2023-04-29T09:56:31.147Z,1012.71
2023-04-29T09:57:31.150Z,1012.64
2023-04-29T09:58:31.166Z,1012.67
2023-04-29T09:59:31.116Z,1012.64
2023-04-29T10:00:31.101Z,1012.69
2023-04-29T10:01:31.109Z,1012.68
2023-04-29T10:02:31.154Z,1012.57
2023-04-29T10:03:31.112Z,1012.64
2023-04-29T10:04:31.089Z,1012.61
2023-04-29T10:05:31.061Z,1012.62
2023-04-29T10:06:31.034Z,1012.61
2023-04-29T10:07:31.064Z,1012.61
2023-04-29T10:08:31.021Z,1012.71
2023-04-29T10:09:31.003Z,1012.62
2023-04-29T10:10:31.004Z,1012.62
2023-04-29T10:11:30.982Z,1012.72
2023-04-29T10:12:30.986Z,1012.70
2023-04-29T10:13:30.979Z,1012.64
2023-04-29T10:14:30.957Z,1012.70
2023-04-29T10:15:30.948Z,1012.62
2023-04-29T10:16:30.997Z,1012.67
2023-04-29T10:17:30.925Z,1012.67
2023-04-29T10:18:30.947Z,1012.74
2023-04-29T10:19:30.911Z,1012.61
2023-04-29T10:20:30.883Z,1012.64
2023-04-29T10:21:30.878Z,1012.51
2023-04-29T10:22:30.866Z,1012.65
2023-04-29T10:23:30.885Z,1012.58
2023-04-29T10:24:30.845Z,1012.59
2023-04-29T10:25:30.843Z,1012.61
2023-04-29T10:26:30.828Z,1012.57
2023-04-29T10:27:30.837Z,1012.69
2023-04-29T10:28:30.789Z,1012.58
2023-04-29T10:29:30.826Z,1012.62
2023-04-29T10:30:30.769Z,1012.65
2023-04-29T10:31:30.820Z,1012.70
2023-04-29T10:32:39.897Z,1012.62
2023-04-29T10:33:31.763Z,1012.54
2023-04-29T10:34:30.730Z,1012.57
2023-04-29T10:35:30.742Z,1012.58
2023-04-29T10:36:30.722Z,1012.60
2023-04-29T10:37:30.685Z,1012.46
2023-04-29T10:38:30.698Z,1012.54
2023-04-29T10:39:30.697Z,1012.52
2023-04-29T10:40:30.692Z,1012.65
2023-04-29T10:41:30.641Z,1012.59
2023-04-29T10:42:30.633Z,1012.62
2023-04-29T10:43:30.627Z,1012.67
2023-04-29T10:44:30.611Z,1012.61
2023-04-29T10:45:30.626Z,1012.56
2023-04-29T10:46:30.643Z,1012.57
2023-04-29T10:47:30.643Z,1012.61
2023-04-29T10:48:30.568Z,1012.65
2023-04-29T10:49:30.552Z,1012.62
2023-04-29T10:50:30.557Z,1012.64
2023-04-29T10:51:30.553Z,1012.67
2023-04-29T10:52:30.582Z,1012.70
2023-04-29T10:53:30.526Z,1012.71
2023-04-29T10:54:30.522Z,1012.70
2023-04-29T10:55:30.541Z,1012.64
2023-04-29T10:56:30.560Z,1012.67
2023-04-29T10:57:30.530Z,1012.65
2023-04-29T10:58:30.454Z,1012.67
2023-04-29T10:59:30.446Z,1012.66
2023-04-29T11:00:30.435Z,1012.62
2023-04-29T11:01:30.494Z,1012.69
2023-04-29T11:02:30.533Z,1012.71
2023-04-29T11:03:30.458Z,1012.72
2023-04-29T11:04:30.460Z,1012.70
2023-04-29T11:05:30.376Z,1012.66
2023-04-29T11:06:30.385Z,1012.71
2023-04-29T11:07:30.358Z,1012.69
2023-04-29T11:08:30.357Z,1012.65
2023-04-29T11:09:30.342Z,1012.68
2023-04-29T11:10:30.337Z,1012.73
2023-04-29T11:11:30.332Z,1012.69
2023-04-29T11:12:30.302Z,1012.72
2023-04-29T11:13:30.334Z,1012.70
2023-04-29T11:14:30.291Z,1012.69
2023-04-29T11:15:30.271Z,1012.72
2023-04-29T11:16:30.287Z,1012.72
2023-04-29T11:17:30.268Z,1012.74
2023-04-29T11:18:30.255Z,1012.67
2023-04-29T11:19:30.274Z,1012.72
2023-04-29T11:20:30.208Z,1012.74
2023-04-29T11:21:30.201Z,1012.82
2023-04-29T11:22:30.207Z,1012.74
2023-04-29T11:23:30.188Z,1012.83
2023-04-29T11:24:30.183Z,1012.85
2023-04-29T11:25:30.168Z,1012.81
2023-04-29T11:26:30.150Z,1012.79
2023-04-29T11:27:30.169Z,1012.84
2023-04-29T11:28:30.133Z,1012.83
2023-04-29T11:29:30.112Z,1012.82
2023-04-29T11:30:30.104Z,1012.83
2023-04-29T11:31:30.150Z,1012.76
2023-04-29T11:32:30.326Z,1012.78
2023-04-29T11:33:30.128Z,1012.78
2023-04-29T11:34:30.054Z,1012.80
2023-04-29T11:35:30.075Z,1012.78
2023-04-29T11:36:30.032Z,1012.82
2023-04-29T11:37:30.032Z,1012.77
2023-04-29T11:38:30.041Z,1012.83
2023-04-29T11:39:30.031Z,1012.77
2023-04-29T11:40:29.997Z,1012.79
2023-04-29T11:41:29.982Z,1012.80
2023-04-29T11:42:29.966Z,1012.74
2023-04-29T11:43:29.989Z,1012.76
2023-04-29T11:44:30.055Z,1012.80
2023-04-29T11:45:29.933Z,1012.87
2023-04-29T11:46:29.991Z,1012.81
2023-04-29T11:47:30.001Z,1012.92
2023-04-29T11:48:29.900Z,1012.89
2023-04-29T11:49:29.906Z,1012.89
2023-04-29T11:50:29.881Z,1012.91
2023-04-29T11:51:29.891Z,1012.92
2023-04-29T11:52:29.858Z,1012.88
2023-04-29T11:53:29.852Z,1012.99
2023-04-29T11:54:29.854Z,1012.95
2023-04-29T11:55:29.820Z,1013.00
2023-04-29T11:56:29.816Z,1012.98
2023-04-29T11:57:29.806Z,1012.95
2023-04-29T11:58:29.787Z,1013.02
2023-04-29T11:59:29.826Z,1012.97
2023-04-29T12:00:29.764Z,1012.99
2023-04-29T12:01:29.766Z,1013.07
2023-04-29T12:02:29.838Z,1012.97
2023-04-29T12:03:29.868Z,1012.97
2023-04-29T12:04:29.798Z,1012.96
2023-04-29T12:05:29.788Z,1013.02